sensor_id;sensor_type;location;lat;lon;timestamp;pressure;altitude;pressure_sealevel;temperature;humidity
28008;BME280;15333;50.010;20.020;2023-02-01T00:00:36;98148.72;;;2.14;100.00
28008;BME280;15333;50.010;20.020;2023-02-01T00:03:57;98147.03;;;2.13;100.00
28008;BME280;15333;50.010;20.020;2023-02-01T00:06:58;98141.56;;;2.16;100.00
28008;BME280;15333;50.010;20.020;2023-02-01T00:09:59;98144.06;;;2.19;100.00
28008;BME280;15333;50.010;20.020;2023-02-01T00:12:59;98147.72;;;2.16;100.00
28008;BME280;15333;50.010;20.020;2023-02-01T00:16:09;98153.00;;;2.16;100.00
28008;BME280;15333;50.010;20.020;2023-02-01T00:19:13;98137.88;;;2.20;100.00
28008;BME280;15333;50.010;20.020;2023-02-01T00:22:15;98147.63;;;2.18;100.00
28008;BME280;15333;50.010;20.020;2023-02-01T00:25:15;98148.03;;;2.10;100.00
28008;BME280;15333;50.010;20.020;2023-02-01T00:28:17;98152.38;;;2.11;100.00
28008;BME280;15333;50.010;20.020;2023-02-01T00:31:17;98143.75;;;2.08;100.00
28008;BME280;15333;50.010;20.020;2023-02-01T00:34:19;98154.50;;;2.05;100.00
28008;BME280;15333;50.010;20.020;2023-02-01T00:37:20;98133.38;;;2.05;100.00
28008;BME280;15333;50.010;20.020;2023-02-01T00:40:22;98129.31;;;2.15;100.00
28008;BME280;15333;50.010;20.020;2023-02-01T00:43:23;98136.16;;;2.19;100.00
28008;BME280;15333;50.010;20.020;2023-02-01T00:46:24;98139.53;;;2.21;100.00
28008;BME280;15333;50.010;20.020;2023-02-01T00:49:25;98129.16;;;2.18;100.00
28008;BME280;15333;50.010;20.020;2023-02-01T00:52:27;98123.69;;;2.21;100.00
28008;BME280;15333;50.010;20.020;2023-02-01T00:55:28;98114.00;;;2.21;100.00
28008;BME280;15333;50.010;20.020;2023-02-01T00:58:29;98122.16;;;2.17;100.00
28008;BME280;15333;50.010;20.020;2023-02-01T01:01:30;98132.28;;;2.09;100.00
28008;BME280;15333;50.010;20.020;2023-02-01T01:04:31;98120.09;;;2.06;100.00
28008;BME280;15333;50.010;20.020;2023-02-01T01:07:32;98129.63;;;2.09;100.00
28008;BME280;15333;50.010;20.020;2023-02-01T01:10:33;98137.81;;;2.04;100.00
28008;BME280;15333;50.010;20.020;2023-02-01T01:13:35;98137.56;;;2.09;100.00
28008;BME280;15333;50.010;20.020;2023-02-01T01:16:36;98133.06;;;2.11;100.00
28008;BME280;15333;50.010;20.020;2023-02-01T01:19:37;98132.16;;;2.27;100.00
28008;BME280;15333;50.010;20.020;2023-02-01T01:22:38;98139.44;;;2.40;100.00
28008;BME280;15333;50.010;20.020;2023-02-01T01:25:39;98146.78;;;2.50;100.00
28008;BME280;15333;50.010;20.020;2023-02-01T01:28:40;98151.56;;;2.59;100.00
28008;BME280;15333;50.010;20.020;2023-02-01T01:31:41;98157.00;;;2.56;100.00
28008;BME280;15333;50.010;20.020;2023-02-01T01:34:42;98144.25;;;2.64;100.00
28008;BME280;15333;50.010;20.020;2023-02-01T01:37:43;98159.56;;;2.58;100.00
28008;BME280;15333;50.010;20.020;2023-02-01T01:40:45;98161.69;;;2.51;100.00
28008;BME280;15333;50.010;20.020;2023-02-01T01:46:50;98166.25;;;2.32;100.00
28008;BME280;15333;50.010;20.020;2023-02-01T01:49:51;98187.38;;;2.15;100.00
28008;BME280;15333;50.010;20.020;2023-02-01T01:52:54;98168.00;;;1.81;100.00
28008;BME280;15333;50.010;20.020;2023-02-01T01:55:58;98161.63;;;1.68;100.00
28008;BME280;15333;50.010;20.020;2023-02-01T01:58:59;98142.84;;;1.74;100.00
28008;BME280;15333;50.010;20.020;2023-02-01T02:02:01;98161.00;;;1.80;100.00
28008;BME280;15333;50.010;20.020;2023-02-01T02:05:03;98159.28;;;1.79;100.00
28008;BME280;15333;50.010;20.020;2023-02-01T02:08:05;98159.16;;;1.82;100.00
28008;BME280;15333;50.010;20.020;2023-02-01T02:11:06;98156.59;;;1.81;100.00
28008;BME280;15333;50.010;20.020;2023-02-01T02:14:09;98156.66;;;1.79;100.00
28008;BME280;15333;50.010;20.020;2023-02-01T02:20:52;98166.59;;;1.74;100.00
28008;BME280;15333;50.010;20.020;2023-02-01T02:24:33;98176.84;;;1.80;100.00
28008;BME280;15333;50.010;20.020;2023-02-01T02:34:46;98206.81;;;1.96;100.00
28008;BME280;15333;50.010;20.020;2023-02-01T02:45:01;98184.38;;;1.88;100.00
28008;BME280;15333;50.010;20.020;2023-02-01T02:51:49;98200.75;;;1.77;100.00
28008;BME280;15333;50.010;20.020;2023-02-01T02:55:10;98208.66;;;1.77;100.00
28008;BME280;15333;50.010;20.020;2023-02-01T02:58:13;98210.19;;;1.81;100.00
28008;BME280;15333;50.010;20.020;2023-02-01T03:01:33;98217.50;;;1.76;100.00
28008;BME280;15333;50.010;20.020;2023-02-01T03:04:54;98216.09;;;1.69;100.00
28008;BME280;15333;50.010;20.020;2023-02-01T03:11:14;98221.81;;;1.60;100.00
28008;BME280;15333;50.010;20.020;2023-02-01T03:14:18;98218.38;;;1.58;100.00
28008;BME280;15333;50.010;20.020;2023-02-01T03:17:26;98217.75;;;1.53;100.00
28008;BME280;15333;50.010;20.020;2023-02-01T03:20:29;98227.81;;;1.45;100.00
28008;BME280;15333;50.010;20.020;2023-02-01T03:23:35;98234.94;;;1.43;100.00
28008;BME280;15333;50.010;20.020;2023-02-01T03:26:40;98247.34;;;1.41;100.00
28008;BME280;15333;50.010;20.020;2023-02-01T03:30:06;98248.34;;;1.38;100.00
28008;BME280;15333;50.010;20.020;2023-02-01T03:33:14;98258.31;;;1.32;100.00
28008;BME280;15333;50.010;20.020;2023-02-01T03:36:30;98251.06;;;1.37;100.00
28008;BME280;15333;50.010;20.020;2023-02-01T03:39:39;98254.47;;;1.39;100.00
28008;BME280;15333;50.010;20.020;2023-02-01T03:42:49;98262.69;;;1.33;100.00
28008;BME280;15333;50.010;20.020;2023-02-01T03:45:58;98255.56;;;1.35;100.00
28008;BME280;15333;50.010;20.020;2023-02-01T03:49:05;98264.47;;;1.32;100.00
28008;BME280;15333;50.010;20.020;2023-02-01T03:52:11;98267.31;;;1.28;100.00
28008;BME280;15333;50.010;20.020;2023-02-01T03:55:16;98272.59;;;1.28;100.00
28008;BME280;15333;50.010;20.020;2023-02-01T03:58:22;98283.25;;;1.25;100.00
28008;BME280;15333;50.010;20.020;2023-02-01T04:01:28;98273.72;;;1.22;100.00
28008;BME280;15333;50.010;20.020;2023-02-01T04:04:30;98269.47;;;1.20;100.00
28008;BME280;15333;50.010;20.020;2023-02-01T04:07:31;98273.00;;;1.18;100.00
28008;BME280;15333;50.010;20.020;2023-02-01T04:10:32;98263.44;;;1.16;100.00
28008;BME280;15333;50.010;20.020;2023-02-01T04:13:33;98259.59;;;1.23;100.00
28008;BME280;15333;50.010;20.020;2023-02-01T04:16:34;98260.75;;;1.17;100.00
28008;BME280;15333;50.010;20.020;2023-02-01T04:19:36;98258.25;;;1.14;100.00
28008;BME280;15333;50.010;20.020;2023-02-01T04:22:36;98258.34;;;1.13;100.00
28008;BME280;15333;50.010;20.020;2023-02-01T04:25:37;98275.44;;;1.04;100.00
28008;BME280;15333;50.010;20.020;2023-02-01T04:28:38;98258.53;;;1.08;100.00
28008;BME280;15333;50.010;20.020;2023-02-01T04:31:39;98274.34;;;1.08;100.00
28008;BME280;15333;50.010;20.020;2023-02-01T04:34:40;98264.47;;;1.13;100.00
28008;BME280;15333;50.010;20.020;2023-02-01T04:37:41;98275.13;;;1.10;100.00
28008;BME280;15333;50.010;20.020;2023-02-01T04:40:42;98264.53;;;1.12;100.00
28008;BME280;15333;50.010;20.020;2023-02-01T04:43:43;98269.59;;;1.16;100.00
28008;BME280;15333;50.010;20.020;2023-02-01T04:46:45;98273.44;;;1.09;100.00
28008;BME280;15333;50.010;20.020;2023-02-01T04:49:46;98277.91;;;1.07;100.00
28008;BME280;15333;50.010;20.020;2023-02-01T04:52:47;98285.69;;;1.10;100.00
28008;BME280;15333;50.010;20.020;2023-02-01T04:55:49;98283.84;;;1.12;100.00
28008;BME280;15333;50.010;20.020;2023-02-01T04:58:50;98284.81;;;1.10;100.00
28008;BME280;15333;50.010;20.020;2023-02-01T05:01:51;98288.09;;;1.15;100.00
28008;BME280;15333;50.010;20.020;2023-02-01T05:04:52;98284.47;;;1.17;100.00
28008;BME280;15333;50.010;20.020;2023-02-01T05:07:53;98295.94;;;1.16;100.00
28008;BME280;15333;50.010;20.020;2023-02-01T05:10:54;98294.38;;;1.12;100.00
28008;BME280;15333;50.010;20.020;2023-02-01T05:13:55;98287.22;;;1.14;100.00
28008;BME280;15333;50.010;20.020;2023-02-01T05:16:57;98287.22;;;1.14;100.00
28008;BME280;15333;50.010;20.020;2023-02-01T05:19:58;98284.25;;;1.22;100.00
28008;BME280;15333;50.010;20.020;2023-02-01T05:22:59;98285.25;;;1.20;100.00
28008;BME280;15333;50.010;20.020;2023-02-01T05:26:01;98285.09;;;1.23;100.00
28008;BME280;15333;50.010;20.020;2023-02-01T05:29:03;98278.13;;;1.22;100.00
28008;BME280;15333;50.010;20.020;2023-02-01T05:32:04;98278.13;;;1.22;100.00
28008;BME280;15333;50.010;20.020;2023-02-01T05:35:05;98278.28;;;1.18;100.00
28008;BME280;15333;50.010;20.020;2023-02-01T05:38:06;98282.69;;;1.18;100.00
28008;BME280;15333;50.010;20.020;2023-02-01T05:41:07;98276.56;;;1.17;100.00
28008;BME280;15333;50.010;20.020;2023-02-01T05:44:10;98280.28;;;1.13;100.00
28008;BME280;15333;50.010;20.020;2023-02-01T05:47:11;98274.22;;;1.11;100.00
28008;BME280;15333;50.010;20.020;2023-02-01T05:50:13;98268.66;;;1.17;100.00
28008;BME280;15333;50.010;20.020;2023-02-01T05:53:14;98266.81;;;1.20;100.00
28008;BME280;15333;50.010;20.020;2023-02-01T05:56:15;98262.75;;;1.12;100.00
28008;BME280;15333;50.010;20.020;2023-02-01T05:59:16;98257.25;;;1.17;100.00
28008;BME280;15333;50.010;20.020;2023-02-01T06:02:17;98264.03;;;1.23;100.00
28008;BME280;15333;50.010;20.020;2023-02-01T06:05:18;98249.00;;;1.25;100.00
28008;BME280;15333;50.010;20.020;2023-02-01T06:08:19;98262.41;;;1.20;100.00
28008;BME280;15333;50.010;20.020;2023-02-01T06:11:20;98253.66;;;1.20;100.00
28008;BME280;15333;50.010;20.020;2023-02-01T06:14:21;98254.16;;;1.28;100.00
28008;BME280;15333;50.010;20.020;2023-02-01T06:17:21;98253.19;;;1.29;100.00
28008;BME280;15333;50.010;20.020;2023-02-01T06:20:23;98256.63;;;1.31;100.00
28008;BME280;15333;50.010;20.020;2023-02-01T06:23:23;98255.34;;;1.39;100.00
28008;BME280;15333;50.010;20.020;2023-02-01T06:26:25;98252.16;;;1.50;100.00
28008;BME280;15333;50.010;20.020;2023-02-01T06:29:26;98241.19;;;1.59;100.00
28008;BME280;15333;50.010;20.020;2023-02-01T06:32:27;98248.44;;;1.73;100.00
28008;BME280;15333;50.010;20.020;2023-02-01T06:35:28;98251.47;;;1.82;100.00
28008;BME280;15333;50.010;20.020;2023-02-01T06:38:29;98258.78;;;1.94;100.00
28008;BME280;15333;50.010;20.020;2023-02-01T06:41:30;98255.78;;;2.02;99.18
28008;BME280;15333;50.010;20.020;2023-02-01T06:44:31;98263.31;;;2.10;97.43
28008;BME280;15333;50.010;20.020;2023-02-01T06:47:32;98258.50;;;2.18;96.69
28008;BME280;15333;50.010;20.020;2023-02-01T06:50:33;98266.88;;;2.26;95.21
28008;BME280;15333;50.010;20.020;2023-02-01T06:53:35;98260.44;;;2.31;94.40
28008;BME280;15333;50.010;20.020;2023-02-01T06:56:36;98258.34;;;2.38;93.26
28008;BME280;15333;50.010;20.020;2023-02-01T06:59:37;98253.59;;;2.45;92.46
28008;BME280;15333;50.010;20.020;2023-02-01T07:02:38;98250.88;;;2.46;91.70
28008;BME280;15333;50.010;20.020;2023-02-01T07:05:40;98253.28;;;2.51;90.89
28008;BME280;15333;50.010;20.020;2023-02-01T07:08:41;98246.66;;;2.59;90.08
28008;BME280;15333;50.010;20.020;2023-02-01T07:11:41;98251.03;;;2.60;89.40
28008;BME280;15333;50.010;20.020;2023-02-01T07:14:44;98248.38;;;2.60;89.64
28008;BME280;15333;50.010;20.020;2023-02-01T07:17:45;98255.03;;;2.67;88.80
28008;BME280;15333;50.010;20.020;2023-02-01T07:20:50;98255.19;;;2.64;89.50
28008;BME280;15333;50.010;20.020;2023-02-01T07:23:51;98251.63;;;2.65;88.58
28008;BME280;15333;50.010;20.020;2023-02-01T07:26:53;98254.72;;;2.73;87.72
28008;BME280;15333;50.010;20.020;2023-02-01T07:29:53;98254.41;;;2.80;87.18
28008;BME280;15333;50.010;20.020;2023-02-01T07:32:56;98237.69;;;2.79;87.34
28008;BME280;15333;50.010;20.020;2023-02-01T07:36:02;98233.78;;;2.86;86.67
28008;BME280;15333;50.010;20.020;2023-02-01T07:39:03;98236.59;;;2.99;85.86
28008;BME280;15333;50.010;20.020;2023-02-01T07:42:05;98238.06;;;2.89;86.23
28008;BME280;15333;50.010;20.020;2023-02-01T07:45:06;98234.16;;;2.96;85.12
28008;BME280;15333;50.010;20.020;2023-02-01T07:48:07;98227.16;;;2.95;85.84
28008;BME280;15333;50.010;20.020;2023-02-01T07:51:11;98224.94;;;3.03;85.20
28008;BME280;15333;50.010;20.020;2023-02-01T07:54:12;98231.94;;;3.04;85.89
28008;BME280;15333;50.010;20.020;2023-02-01T07:57:13;98226.75;;;3.18;83.64
28008;BME280;15333;50.010;20.020;2023-02-01T08:00:14;98225.66;;;3.22;83.37
28008;BME280;15333;50.010;20.020;2023-02-01T08:03:34;98220.34;;;3.22;83.42
28008;BME280;15333;50.010;20.020;2023-02-01T08:06:35;98220.78;;;3.30;82.88
28008;BME280;15333;50.010;20.020;2023-02-01T08:09:36;98225.72;;;3.36;82.22
28008;BME280;15333;50.010;20.020;2023-02-01T08:12:37;98226.31;;;3.41;82.09
28008;BME280;15333;50.010;20.020;2023-02-01T08:15:38;98224.28;;;3.46;81.37
28008;BME280;15333;50.010;20.020;2023-02-01T08:18:39;98221.03;;;3.57;80.79
28008;BME280;15333;50.010;20.020;2023-02-01T08:21:41;98221.66;;;3.62;79.78
28008;BME280;15333;50.010;20.020;2023-02-01T08:24:42;98220.00;;;3.60;80.39
28008;BME280;15333;50.010;20.020;2023-02-01T08:27:43;98214.38;;;3.66;79.73
28008;BME280;15333;50.010;20.020;2023-02-01T08:30:43;98228.53;;;3.65;79.28
28008;BME280;15333;50.010;20.020;2023-02-01T08:33:48;98222.72;;;3.74;78.50
28008;BME280;15333;50.010;20.020;2023-02-01T08:36:49;98226.16;;;3.76;78.26
28008;BME280;15333;50.010;20.020;2023-02-01T08:39:52;98216.75;;;3.70;79.12
28008;BME280;15333;50.010;20.020;2023-02-01T08:42:53;98224.78;;;3.69;78.76
28008;BME280;15333;50.010;20.020;2023-02-01T08:45:54;98222.16;;;3.69;78.18
28008;BME280;15333;50.010;20.020;2023-02-01T08:48:56;98232.19;;;3.78;77.38
28008;BME280;15333;50.010;20.020;2023-02-01T08:51:57;98225.72;;;3.83;77.98
28008;BME280;15333;50.010;20.020;2023-02-01T08:54:58;98227.16;;;3.89;77.76
28008;BME280;15333;50.010;20.020;2023-02-01T08:57:59;98228.84;;;3.90;77.07
28008;BME280;15333;50.010;20.020;2023-02-01T09:01:08;98229.84;;;4.03;76.49
28008;BME280;15333;50.010;20.020;2023-02-01T09:04:09;98227.19;;;4.03;76.95
28008;BME280;15333;50.010;20.020;2023-02-01T09:07:10;98227.41;;;4.14;76.21
28008;BME280;15333;50.010;20.020;2023-02-01T09:10:11;98217.66;;;4.15;76.72
28008;BME280;15333;50.010;20.020;2023-02-01T09:13:12;98218.69;;;4.12;75.98
28008;BME280;15333;50.010;20.020;2023-02-01T09:16:14;98220.03;;;4.19;76.08
28008;BME280;15333;50.010;20.020;2023-02-01T09:19:15;98215.47;;;4.07;76.39
28008;BME280;15333;50.010;20.020;2023-02-01T09:22:16;98216.31;;;4.08;76.93
28008;BME280;15333;50.010;20.020;2023-02-01T09:25:17;98203.94;;;4.08;77.03
28008;BME280;15333;50.010;20.020;2023-02-01T09:28:19;98198.50;;;4.25;77.12
28008;BME280;15333;50.010;20.020;2023-02-01T09:31:20;98179.78;;;4.43;75.41
28008;BME280;15333;50.010;20.020;2023-02-01T09:34:21;98193.44;;;4.51;75.54
28008;BME280;15333;50.010;20.020;2023-02-01T09:37:22;98184.16;;;4.58;75.28
28008;BME280;15333;50.010;20.020;2023-02-01T09:40:24;98189.09;;;4.64;74.36
28008;BME280;15333;50.010;20.020;2023-02-01T09:43:48;98188.16;;;4.79;73.60
28008;BME280;15333;50.010;20.020;2023-02-01T09:46:55;98186.81;;;4.72;73.69
28008;BME280;15333;50.010;20.020;2023-02-01T09:50:09;98191.34;;;4.70;74.28
28008;BME280;15333;50.010;20.020;2023-02-01T09:53:27;98180.75;;;4.84;74.34
28008;BME280;15333;50.010;20.020;2023-02-01T09:56:40;98188.16;;;4.79;74.73
28008;BME280;15333;50.010;20.020;2023-02-01T09:59:46;98194.00;;;4.70;74.72
28008;BME280;15333;50.010;20.020;2023-02-01T10:02:48;98191.72;;;4.50;75.37
28008;BME280;15333;50.010;20.020;2023-02-01T10:06:00;98202.88;;;4.41;76.26
28008;BME280;15333;50.010;20.020;2023-02-01T10:19:04;98209.47;;;4.33;81.50
28008;BME280;15333;50.010;20.020;2023-02-01T10:22:10;98201.16;;;4.25;82.67
28008;BME280;15333;50.010;20.020;2023-02-01T10:25:25;98199.84;;;4.32;82.01
28008;BME280;15333;50.010;20.020;2023-02-01T10:28:26;98188.41;;;4.32;82.03
28008;BME280;15333;50.010;20.020;2023-02-01T10:31:37;98190.66;;;4.24;83.08
28008;BME280;15333;50.010;20.020;2023-02-01T10:34:39;98189.81;;;4.23;83.88
28008;BME280;15333;50.010;20.020;2023-02-01T10:37:42;98178.75;;;4.31;84.53
28008;BME280;15333;50.010;20.020;2023-02-01T10:40:43;98180.63;;;4.29;84.91
28008;BME280;15333;50.010;20.020;2023-02-01T10:43:47;98173.00;;;4.39;84.99
28008;BME280;15333;50.010;20.020;2023-02-01T10:46:50;98187.47;;;4.03;85.54
28008;BME280;15333;50.010;20.020;2023-02-01T10:53:22;98171.03;;;4.12;87.71
28008;BME280;15333;50.010;20.020;2023-02-01T10:56:27;98159.66;;;3.96;88.09
28008;BME280;15333;50.010;20.020;2023-02-01T10:59:30;98172.66;;;3.85;88.34
28008;BME280;15333;50.010;20.020;2023-02-01T11:02:35;98176.25;;;3.84;88.79
28008;BME280;15333;50.010;20.020;2023-02-01T11:05:46;98161.09;;;3.72;88.48
28008;BME280;15333;50.010;20.020;2023-02-01T11:08:53;98148.97;;;3.83;87.69
28008;BME280;15333;50.010;20.020;2023-02-01T11:11:59;98165.66;;;3.84;88.86
28008;BME280;15333;50.010;20.020;2023-02-01T11:15:14;98139.94;;;4.16;88.18
28008;BME280;15333;50.010;20.020;2023-02-01T11:18:21;98151.16;;;4.05;87.17
28008;BME280;15333;50.010;20.020;2023-02-01T11:21:26;98159.47;;;3.99;87.15
28008;BME280;15333;50.010;20.020;2023-02-01T11:24:32;98144.31;;;3.87;88.98
28008;BME280;15333;50.010;20.020;2023-02-01T11:27:34;98135.97;;;3.79;88.39
28008;BME280;15333;50.010;20.020;2023-02-01T11:30:38;98152.72;;;3.79;88.68
28008;BME280;15333;50.010;20.020;2023-02-01T11:33:47;98142.06;;;3.95;89.29
28008;BME280;15333;50.010;20.020;2023-02-01T11:36:50;98149.53;;;3.88;88.03
28008;BME280;15333;50.010;20.020;2023-02-01T11:40:00;98143.38;;;3.88;88.23
28008;BME280;15333;50.010;20.020;2023-02-01T11:43:16;98132.47;;;3.78;88.70
28008;BME280;15333;50.010;20.020;2023-02-01T11:46:23;98143.19;;;3.91;88.68
28008;BME280;15333;50.010;20.020;2023-02-01T11:49:26;98135.66;;;4.13;89.64
28008;BME280;15333;50.010;20.020;2023-02-01T11:56:01;98126.19;;;3.95;89.09
28008;BME280;15333;50.010;20.020;2023-02-01T11:59:26;98120.69;;;3.98;90.15
28008;BME280;15333;50.010;20.020;2023-02-01T12:13:58;98111.94;;;3.68;94.90
28008;BME280;15333;50.010;20.020;2023-02-01T12:27:24;98081.59;;;4.03;90.71
28008;BME280;15333;50.010;20.020;2023-02-01T12:30:46;98082.16;;;4.22;89.17
28008;BME280;15333;50.010;20.020;2023-02-01T12:43:45;98084.81;;;4.37;85.98
28008;BME280;15333;50.010;20.020;2023-02-01T12:47:09;98090.09;;;4.37;86.82
28008;BME280;15333;50.010;20.020;2023-02-01T12:59:47;98074.97;;;3.96;91.31
28008;BME280;15333;50.010;20.020;2023-02-01T13:06:37;98062.66;;;3.95;90.12
28008;BME280;15333;50.010;20.020;2023-02-01T13:09:45;98063.97;;;3.88;90.40
28008;BME280;15333;50.010;20.020;2023-02-01T13:13:13;98057.00;;;4.01;88.72
28008;BME280;15333;50.010;20.020;2023-02-01T13:16:23;98056.81;;;4.04;88.63
28008;BME280;15333;50.010;20.020;2023-02-01T13:25:50;98055.22;;;4.16;87.70
28008;BME280;15333;50.010;20.020;2023-02-01T13:29:02;98039.13;;;4.19;86.67
28008;BME280;15333;50.010;20.020;2023-02-01T13:45:47;98029.97;;;4.10;85.90
28008;BME280;15333;50.010;20.020;2023-02-01T13:48:53;98033.53;;;3.95;86.93
28008;BME280;15333;50.010;20.020;2023-02-01T13:51:56;98041.09;;;3.87;87.42
28008;BME280;15333;50.010;20.020;2023-02-01T13:55:13;98025.59;;;3.81;88.75
28008;BME280;15333;50.010;20.020;2023-02-01T13:58:21;98028.25;;;3.81;88.92
28008;BME280;15333;50.010;20.020;2023-02-01T14:04:47;98033.34;;;3.84;89.13
28008;BME280;15333;50.010;20.020;2023-02-01T14:11:34;98033.16;;;3.87;87.62
28008;BME280;15333;50.010;20.020;2023-02-01T14:17:37;98014.63;;;4.01;86.10
28008;BME280;15333;50.010;20.020;2023-02-01T14:20:42;98020.22;;;4.11;84.75
28008;BME280;15333;50.010;20.020;2023-02-01T14:30:15;98018.03;;;4.03;84.46
28008;BME280;15333;50.010;20.020;2023-02-01T14:33:22;98023.53;;;4.00;84.56
28008;BME280;15333;50.010;20.020;2023-02-01T14:36:24;98006.78;;;4.00;84.28
28008;BME280;15333;50.010;20.020;2023-02-01T14:39:36;98008.03;;;3.94;84.47
28008;BME280;15333;50.010;20.020;2023-02-01T14:48:46;98000.06;;;3.80;86.64
28008;BME280;15333;50.010;20.020;2023-02-01T14:51:47;97998.19;;;3.68;88.57
28008;BME280;15333;50.010;20.020;2023-02-01T14:54:53;97990.97;;;3.55;90.95
28008;BME280;15333;50.010;20.020;2023-02-01T14:57:57;98008.13;;;3.48;92.13
28008;BME280;15333;50.010;20.020;2023-02-01T15:04:18;98012.84;;;3.43;93.05
28008;BME280;15333;50.010;20.020;2023-02-01T15:07:25;98016.66;;;3.39;95.20
28008;BME280;15333;50.010;20.020;2023-02-01T15:10:27;98023.94;;;3.20;98.01
28008;BME280;15333;50.010;20.020;2023-02-01T15:13:29;98022.72;;;2.96;100.00
28008;BME280;15333;50.010;20.020;2023-02-01T15:16:29;98034.00;;;2.84;100.00
28008;BME280;15333;50.010;20.020;2023-02-01T15:19:31;98046.59;;;2.79;100.00
28008;BME280;15333;50.010;20.020;2023-02-01T15:22:31;98035.22;;;2.62;100.00
28008;BME280;15333;50.010;20.020;2023-02-01T15:25:33;98040.41;;;2.48;100.00
28008;BME280;15333;50.010;20.020;2023-02-01T15:28:36;98032.97;;;2.39;100.00
28008;BME280;15333;50.010;20.020;2023-02-01T15:31:46;98028.78;;;2.35;100.00
28008;BME280;15333;50.010;20.020;2023-02-01T15:34:49;98033.81;;;2.40;100.00
28008;BME280;15333;50.010;20.020;2023-02-01T15:37:51;98034.16;;;2.33;100.00
28008;BME280;15333;50.010;20.020;2023-02-01T15:41:17;98048.72;;;2.25;100.00
28008;BME280;15333;50.010;20.020;2023-02-01T15:44:40;98062.06;;;2.22;100.00
28008;BME280;15333;50.010;20.020;2023-02-01T15:47:41;98063.97;;;2.20;100.00
28008;BME280;15333;50.010;20.020;2023-02-01T15:50:46;98058.22;;;2.12;100.00
28008;BME280;15333;50.010;20.020;2023-02-01T15:53:52;98057.44;;;2.10;100.00
28008;BME280;15333;50.010;20.020;2023-02-01T15:56:55;98051.47;;;2.06;100.00
28008;BME280;15333;50.010;20.020;2023-02-01T15:59:59;98069.88;;;2.08;100.00
28008;BME280;15333;50.010;20.020;2023-02-01T16:03:04;98076.00;;;2.08;100.00
28008;BME280;15333;50.010;20.020;2023-02-01T16:06:29;98080.41;;;2.08;100.00
28008;BME280;15333;50.010;20.020;2023-02-01T16:09:38;98066.16;;;2.12;100.00
28008;BME280;15333;50.010;20.020;2023-02-01T16:15:44;98083.50;;;2.16;100.00
28008;BME280;15333;50.010;20.020;2023-02-01T16:18:45;98088.53;;;2.20;100.00
28008;BME280;15333;50.010;20.020;2023-02-01T16:21:46;98076.53;;;2.15;100.00
28008;BME280;15333;50.010;20.020;2023-02-01T16:24:47;98071.09;;;2.18;100.00
28008;BME280;15333;50.010;20.020;2023-02-01T16:27:48;98079.94;;;2.17;100.00
28008;BME280;15333;50.010;20.020;2023-02-01T16:30:49;98076.19;;;2.21;100.00
28008;BME280;15333;50.010;20.020;2023-02-01T16:33:50;98097.31;;;2.21;100.00
28008;BME280;15333;50.010;20.020;2023-02-01T16:36:52;98088.31;;;2.25;100.00
28008;BME280;15333;50.010;20.020;2023-02-01T16:39:54;98095.31;;;2.26;100.00
28008;BME280;15333;50.010;20.020;2023-02-01T16:42:55;98099.53;;;2.28;100.00
28008;BME280;15333;50.010;20.020;2023-02-01T16:46:00;98108.41;;;2.27;100.00
28008;BME280;15333;50.010;20.020;2023-02-01T16:49:03;98117.94;;;2.30;100.00
28008;BME280;15333;50.010;20.020;2023-02-01T16:52:04;98116.25;;;2.29;100.00
28008;BME280;15333;50.010;20.020;2023-02-01T16:55:12;98125.88;;;2.30;100.00
28008;BME280;15333;50.010;20.020;2023-02-01T16:58:14;98129.50;;;2.12;100.00
28008;BME280;15333;50.010;20.020;2023-02-01T17:01:17;98120.19;;;2.05;100.00
28008;BME280;15333;50.010;20.020;2023-02-01T17:04:19;98122.81;;;2.05;100.00
28008;BME280;15333;50.010;20.020;2023-02-01T17:07:21;98117.03;;;2.14;100.00
28008;BME280;15333;50.010;20.020;2023-02-01T17:10:25;98126.53;;;2.18;100.00
28008;BME280;15333;50.010;20.020;2023-02-01T17:13:27;98115.63;;;2.24;100.00
28008;BME280;15333;50.010;20.020;2023-02-01T17:16:30;98112.84;;;2.27;100.00
28008;BME280;15333;50.010;20.020;2023-02-01T17:19:31;98121.69;;;2.26;100.00
28008;BME280;15333;50.010;20.020;2023-02-01T17:22:33;98126.19;;;2.24;100.00
28008;BME280;15333;50.010;20.020;2023-02-01T17:25:34;98135.66;;;2.28;100.00
28008;BME280;15333;50.010;20.020;2023-02-01T17:28:35;98122.38;;;2.29;100.00
28008;BME280;15333;50.010;20.020;2023-02-01T17:31:38;98122.91;;;2.36;100.00
28008;BME280;15333;50.010;20.020;2023-02-01T17:34:40;98123.75;;;2.36;100.00
28008;BME280;15333;50.010;20.020;2023-02-01T17:37:41;98120.63;;;2.46;100.00
28008;BME280;15333;50.010;20.020;2023-02-01T17:40:42;98126.66;;;2.32;100.00
28008;BME280;15333;50.010;20.020;2023-02-01T17:43:43;98120.25;;;2.36;100.00
28008;BME280;15333;50.010;20.020;2023-02-01T17:46:44;98110.81;;;2.32;100.00
28008;BME280;15333;50.010;20.020;2023-02-01T17:49:45;98110.81;;;2.32;100.00
28008;BME280;15333;50.010;20.020;2023-02-01T17:52:46;98116.25;;;2.29;100.00
28008;BME280;15333;50.010;20.020;2023-02-01T17:55:47;98118.47;;;2.36;100.00
28008;BME280;15333;50.010;20.020;2023-02-01T17:58:48;98126.84;;;2.45;100.00
28008;BME280;15333;50.010;20.020;2023-02-01T18:01:49;98116.97;;;2.48;100.00
28008;BME280;15333;50.010;20.020;2023-02-01T18:04:51;98132.16;;;2.60;100.00
28008;BME280;15333;50.010;20.020;2023-02-01T18:07:52;98119.19;;;2.56;100.00
28008;BME280;15333;50.010;20.020;2023-02-01T18:10:56;98112.66;;;2.63;100.00
28008;BME280;15333;50.010;20.020;2023-02-01T18:14:00;98102.81;;;2.49;100.00
28008;BME280;15333;50.010;20.020;2023-02-01T18:17:01;98119.19;;;2.40;100.00
28008;BME280;15333;50.010;20.020;2023-02-01T18:20:02;98121.50;;;2.29;100.00
28008;BME280;15333;50.010;20.020;2023-02-01T18:23:03;98116.53;;;2.40;100.00
28008;BME280;15333;50.010;20.020;2023-02-01T18:26:04;98112.25;;;2.38;100.00